createdAt,value
2023-03-26T00:01:51.335Z,10.20
2023-03-26T00:04:21.826Z,10.20
2023-03-26T00:06:50.374Z,10.20
2023-03-26T00:09:18.597Z,10.20
2023-03-26T00:11:49.168Z,10.20
2023-03-26T00:14:18.018Z,10.20
2023-03-26T00:16:47.479Z,10.10
2023-03-26T00:19:15.618Z,10.10
2023-03-26T00:21:42.969Z,10.10
2023-03-26T00:24:15.140Z,10.10
2023-03-26T00:26:43.631Z,10.20
2023-03-26T00:29:13.535Z,10.20
2023-03-26T00:31:41.149Z,10.20
2023-03-26T00:34:10.499Z,10.20
2023-03-26T00:36:38.047Z,10.20
2023-03-26T00:39:05.681Z,10.30
2023-03-26T00:41:37.149Z,10.30
2023-03-26T00:44:05.161Z,10.30
2023-03-26T00:46:32.824Z,10.40
2023-03-26T00:49:01.947Z,10.40
2023-03-26T00:51:29.777Z,10.40
2023-03-26T00:53:58.196Z,10.40
2023-03-26T00:56:26.210Z,10.40
2023-03-26T00:58:53.761Z,10.40
2023-03-26T01:01:28.487Z,10.50
2023-03-26T01:04:08.723Z,10.40
2023-03-26T01:06:39.440Z,10.40
2023-03-26T01:09:17.028Z,10.40
2023-03-26T01:11:45.535Z,10.40
2023-03-26T01:14:17.164Z,10.30
2023-03-26T01:16:49.921Z,10.30
2023-03-26T01:19:29.750Z,10.20
2023-03-26T01:21:59.012Z,10.30
2023-03-26T01:24:26.756Z,10.30
2023-03-26T01:27:11.464Z,10.20
2023-03-26T01:29:39.400Z,10.20
2023-03-26T01:32:28.774Z,10.10
2023-03-26T01:35:23.360Z,10.20
2023-03-26T01:37:58.829Z,10.20
2023-03-26T01:40:38.753Z,10.20
2023-03-26T01:43:21.156Z,10.20
2023-03-26T01:45:50.498Z,10.20
2023-03-26T01:48:18.301Z,10.20
2023-03-26T01:50:46.044Z,10.30
2023-03-26T01:53:14.592Z,10.20
2023-03-26T01:56:03.964Z,10.20
2023-03-26T01:58:36.048Z,10.20
2023-03-26T02:01:12.693Z,10.20
2023-03-26T02:03:47.750Z,10.20
2023-03-26T02:06:32.056Z,10.10
2023-03-26T02:09:05.724Z,10.20
2023-03-26T02:11:35.895Z,10.20
2023-03-26T02:14:06.116Z,10.10
2023-03-26T02:16:33.825Z,10.20
2023-03-26T02:19:01.250Z,10.20
2023-03-26T02:21:28.760Z,10.20
2023-03-26T02:24:02.998Z,10.20
2023-03-26T02:26:33.499Z,10.20
2023-03-26T02:29:01.752Z,10.20
2023-03-26T02:31:30.280Z,10.30
2023-03-26T02:33:57.890Z,10.30
2023-03-26T02:36:27.517Z,10.30
2023-03-26T02:38:57.993Z,10.30
2023-03-26T02:41:25.499Z,10.30
2023-03-26T02:43:52.832Z,10.30
2023-03-26T02:46:20.545Z,10.20
2023-03-26T02:48:48.084Z,10.00
2023-03-26T02:51:18.215Z,9.80
2023-03-26T02:53:46.048Z,9.60
2023-03-26T02:56:13.541Z,9.50
2023-03-26T02:58:40.885Z,9.40
2023-03-26T03:01:08.519Z,9.30
2023-03-26T03:03:36.492Z,9.20
2023-03-26T03:06:04.001Z,9.10
2023-03-26T03:08:31.488Z,9.10
2023-03-26T03:11:00.961Z,9.10
2023-03-26T03:13:28.786Z,9.10
2023-03-26T03:15:56.743Z,9.00
2023-03-26T03:18:24.335Z,9.00
2023-03-26T03:20:52.207Z,9.00
2023-03-26T03:23:20.025Z,9.00
2023-03-26T03:25:48.002Z,8.90
2023-03-26T03:28:18.249Z,8.90
2023-03-26T03:30:45.964Z,9.00
2023-03-26T03:33:13.378Z,9.00
2023-03-26T03:35:41.747Z,8.90
2023-03-26T03:38:10.799Z,8.80
2023-03-26T03:40:38.188Z,8.80
2023-03-26T03:43:05.693Z,8.90
2023-03-26T03:45:33.190Z,8.90
2023-03-26T03:48:00.844Z,8.90
2023-03-26T03:50:28.440Z,8.90
2023-03-26T03:52:56.031Z,8.90
2023-03-26T03:55:24.209Z,8.90
2023-03-26T03:57:52.649Z,8.90
2023-03-26T04:00:20.291Z,8.90
2023-03-26T04:02:47.946Z,8.90
2023-03-26T04:05:15.709Z,8.90
2023-03-26T04:07:43.948Z,8.90
2023-03-26T04:10:14.836Z,8.90
2023-03-26T04:12:42.362Z,8.90
2023-03-26T04:15:09.975Z,8.90
2023-03-26T04:17:42.910Z,8.90
2023-03-26T04:20:16.011Z,8.90
2023-03-26T04:22:44.211Z,8.90
2023-03-26T04:25:13.236Z,8.90
2023-03-26T04:27:43.400Z,8.80
2023-03-26T04:30:15.651Z,8.80
2023-03-26T04:32:44.765Z,8.90
2023-03-26T04:35:16.705Z,8.90
2023-03-26T04:37:46.136Z,8.80
2023-03-26T04:40:16.723Z,8.70
2023-03-26T04:42:46.787Z,8.70
2023-03-26T04:45:17.633Z,8.70
2023-03-26T04:47:46.573Z,8.70
2023-03-26T04:50:14.547Z,8.60
2023-03-26T04:52:44.570Z,8.70
2023-03-26T04:55:29.836Z,8.70
2023-03-26T04:58:05.564Z,8.70
2023-03-26T05:00:33.138Z,8.50
2023-03-26T05:03:01.553Z,8.40
2023-03-26T05:05:29.726Z,8.20
2023-03-26T05:07:57.149Z,8.20
2023-03-26T05:10:24.705Z,8.20
2023-03-26T05:12:52.180Z,8.10
2023-03-26T05:15:19.790Z,8.00
2023-03-26T05:17:48.425Z,7.90
2023-03-26T05:20:20.817Z,7.90
2023-03-26T05:22:51.380Z,7.90
2023-03-26T05:25:19.322Z,7.90
2023-03-26T05:27:46.945Z,7.90
2023-03-26T05:30:18.078Z,7.80
2023-03-26T05:32:48.851Z,7.80
2023-03-26T05:35:17.689Z,7.80
2023-03-26T05:37:46.526Z,7.90
2023-03-26T05:40:17.195Z,7.80
2023-03-26T05:42:45.507Z,7.70
2023-03-26T05:45:14.790Z,7.60
2023-03-26T05:47:42.679Z,7.70
2023-03-26T05:50:11.119Z,7.70
2023-03-26T05:52:38.623Z,7.80
2023-03-26T05:55:06.639Z,7.80
2023-03-26T05:57:35.603Z,7.70
2023-03-26T06:00:04.729Z,7.70
2023-03-26T06:02:32.392Z,7.60
2023-03-26T06:04:59.687Z,7.60
2023-03-26T06:07:27.152Z,7.60
2023-03-26T06:09:54.827Z,7.50
2023-03-26T06:12:22.980Z,7.50
2023-03-26T06:14:50.328Z,7.60
2023-03-26T06:17:18.026Z,7.60
2023-03-26T06:19:45.588Z,7.60
2023-03-26T06:22:12.869Z,7.60
2023-03-26T06:24:40.118Z,7.50
2023-03-26T06:27:07.675Z,7.60
2023-03-26T06:29:35.548Z,7.70
2023-03-26T06:32:16.214Z,7.80
2023-03-26T06:34:46.680Z,7.80
2023-03-26T06:37:14.276Z,7.90
2023-03-26T06:39:41.787Z,7.90
2023-03-26T06:42:09.308Z,7.90
2023-03-26T06:44:36.780Z,7.90
2023-03-26T06:47:04.275Z,7.80
2023-03-26T06:49:31.696Z,7.80
2023-03-26T06:51:59.591Z,7.80
2023-03-26T06:54:27.629Z,7.80
2023-03-26T06:56:55.028Z,7.80
2023-03-26T06:59:22.486Z,7.90
2023-03-26T07:01:49.929Z,7.90
2023-03-26T07:04:17.555Z,7.90
2023-03-26T07:06:45.180Z,7.90
2023-03-26T07:09:12.524Z,7.80
2023-03-26T07:11:39.831Z,7.70
2023-03-26T07:14:07.233Z,7.60
2023-03-26T07:16:34.561Z,7.60
2023-03-26T07:19:01.986Z,7.60
2023-03-26T07:21:29.836Z,7.60
2023-03-26T07:23:57.531Z,7.60
2023-03-26T07:26:49.531Z,7.60
2023-03-26T07:29:37.828Z,7.50
2023-03-26T07:32:32.955Z,7.50
2023-03-26T07:35:37.608Z,7.60
2023-03-26T07:38:40.682Z,7.50
2023-03-26T07:41:14.521Z,7.40
2023-03-26T07:43:59.727Z,7.50
2023-03-26T07:46:34.067Z,7.50
2023-03-26T07:49:01.961Z,7.50
2023-03-26T07:51:29.925Z,7.60
2023-03-26T07:54:00.617Z,7.70
2023-03-26T07:56:59.045Z,7.70
2023-03-26T07:59:36.925Z,7.60
2023-03-26T08:02:32.348Z,7.70
2023-03-26T08:05:29.567Z,7.70
2023-03-26T08:08:10.116Z,7.80
2023-03-26T08:10:41.269Z,7.80
2023-03-26T08:13:14.720Z,7.90
2023-03-26T08:15:53.637Z,7.80
2023-03-26T08:18:41.275Z,7.70
2023-03-26T08:21:27.182Z,7.70
2023-03-26T08:24:02.026Z,7.60
2023-03-26T08:26:47.755Z,7.60
2023-03-26T08:29:15.876Z,7.60
2023-03-26T08:31:46.566Z,7.50
2023-03-26T08:34:14.322Z,7.60
2023-03-26T08:36:41.713Z,7.70
2023-03-26T08:39:09.168Z,7.60
2023-03-26T08:41:54.924Z,7.60
2023-03-26T08:44:41.464Z,7.80
2023-03-26T08:47:15.762Z,7.80
2023-03-26T08:50:01.456Z,7.70
2023-03-26T08:52:54.676Z,7.70
2023-03-26T08:55:43.767Z,7.80
2023-03-26T08:58:26.369Z,7.70
2023-03-26T09:01:18.323Z,7.60
2023-03-26T09:03:52.743Z,7.60
2023-03-26T09:06:39.436Z,7.60
2023-03-26T09:09:10.026Z,7.70
2023-03-26T09:12:19.618Z,7.70
2023-03-26T09:15:27.900Z,7.80
2023-03-26T09:18:11.524Z,7.70
2023-03-26T09:21:10.472Z,7.60
2023-03-26T09:23:51.921Z,7.70
2023-03-26T09:26:25.427Z,7.80
2023-03-26T09:29:43.364Z,7.90
2023-03-26T09:32:22.494Z,8.00
2023-03-26T09:35:08.464Z,8.10
2023-03-26T09:37:58.292Z,8.10
2023-03-26T09:40:38.261Z,8.20
2023-03-26T09:43:36.320Z,8.30
2023-03-26T09:46:20.963Z,8.40
2023-03-26T09:49:11.891Z,8.40
2023-03-26T09:52:03.379Z,8.40
2023-03-26T09:54:48.387Z,8.50
2023-03-26T09:57:24.870Z,8.50
2023-03-26T10:00:04.909Z,8.50
2023-03-26T10:02:54.093Z,8.50
2023-03-26T10:05:41.412Z,8.50
2023-03-26T10:08:58.227Z,8.50
2023-03-26T10:11:47.376Z,8.70
2023-03-26T10:14:33.163Z,8.80
2023-03-26T10:17:05.079Z,8.90
2023-03-26T10:20:02.459Z,9.00
2023-03-26T10:22:38.817Z,9.10
2023-03-26T10:25:22.264Z,9.10
2023-03-26T10:27:56.225Z,9.20
2023-03-26T10:30:38.144Z,9.10
2023-03-26T10:33:14.932Z,9.00
2023-03-26T10:36:19.719Z,9.00
2023-03-26T10:38:57.665Z,9.00
2023-03-26T10:41:43.610Z,9.10
2023-03-26T10:44:40.461Z,9.20
2023-03-26T10:47:16.618Z,9.10
2023-03-26T10:50:05.972Z,9.00
2023-03-26T10:53:10.961Z,9.10
2023-03-26T10:55:46.824Z,9.20
2023-03-26T10:58:48.862Z,9.30
2023-03-26T11:01:42.164Z,9.20
2023-03-26T11:04:12.617Z,9.20
2023-03-26T11:06:56.318Z,9.20
2023-03-26T11:09:38.677Z,9.30
2023-03-26T11:12:33.511Z,9.40
2023-03-26T11:15:22.715Z,9.40
2023-03-26T11:18:01.891Z,9.50
2023-03-26T11:20:41.166Z,9.50
2023-03-26T11:23:32.772Z,9.60
2023-03-26T11:26:08.560Z,9.60
2023-03-26T11:29:04.656Z,9.70
2023-03-26T11:31:52.677Z,9.70
2023-03-26T11:34:28.127Z,9.60
2023-03-26T11:36:59.017Z,9.60
2023-03-26T11:39:34.030Z,9.60
2023-03-26T11:42:11.243Z,9.50
2023-03-26T11:44:46.614Z,9.40
2023-03-26T11:47:18.966Z,9.40
2023-03-26T11:49:50.208Z,9.30
2023-03-26T11:52:17.663Z,9.30
2023-03-26T11:54:48.486Z,9.20
2023-03-26T11:57:25.971Z,9.10
2023-03-26T12:00:04.325Z,9.10
2023-03-26T12:02:39.002Z,9.10
2023-03-26T12:05:18.093Z,9.10
2023-03-26T12:08:00.252Z,9.00
2023-03-26T12:10:39.076Z,9.00
2023-03-26T12:13:33.455Z,9.00
2023-03-26T12:16:15.943Z,9.00
2023-03-26T12:18:45.716Z,9.00
2023-03-26T12:21:14.755Z,9.00
2023-03-26T12:23:56.948Z,9.00
2023-03-26T12:26:31.756Z,9.10
2023-03-26T12:29:07.453Z,9.10
2023-03-26T12:32:04.097Z,9.20
2023-03-26T12:34:35.454Z,9.30
2023-03-26T12:37:05.395Z,9.30
2023-03-26T12:40:08.660Z,9.30
2023-03-26T12:44:46.259Z,9.20
2023-03-26T12:45:29.134Z,9.30
2023-03-26T12:48:03.862Z,9.50
2023-03-26T12:50:57.261Z,9.60
2023-03-26T12:53:38.812Z,9.60
2023-03-26T12:56:20.029Z,9.50
2023-03-26T12:58:55.213Z,9.50
2023-03-26T13:01:40.841Z,9.30
2023-03-26T13:04:27.008Z,9.20
2023-03-26T13:07:01.681Z,9.10
2023-03-26T13:09:32.988Z,9.00
2023-03-26T13:12:17.602Z,8.90
2023-03-26T13:14:56.420Z,8.80
2023-03-26T13:17:35.879Z,8.80
2023-03-26T13:20:12.228Z,8.90
2023-03-26T13:23:21.309Z,8.80
2023-03-26T13:26:04.711Z,8.80
2023-03-26T13:29:04.342Z,8.80
2023-03-26T13:31:58.274Z,8.80
2023-03-26T13:35:20.358Z,8.80
2023-03-26T13:38:10.160Z,8.70
2023-03-26T13:40:46.204Z,8.70
2023-03-26T13:43:51.314Z,8.70
2023-03-26T13:46:31.596Z,8.70
2023-03-26T13:49:12.938Z,8.70
2023-03-26T13:51:53.169Z,8.60
2023-03-26T13:54:27.705Z,8.70
2023-03-26T13:57:07.800Z,8.80
2023-03-26T13:59:42.301Z,8.90
2023-03-26T14:02:16.794Z,8.90
2023-03-26T14:04:54.047Z,8.80
2023-03-26T14:07:33.317Z,8.90
2023-03-26T14:10:10.268Z,8.90
2023-03-26T14:13:00.674Z,8.90
2023-03-26T14:15:37.689Z,8.90
2023-03-26T14:18:33.566Z,8.90
2023-03-26T14:21:27.418Z,8.90
2023-03-26T14:24:25.517Z,8.80
2023-03-26T14:27:21.049Z,8.90
2023-03-26T14:30:32.995Z,8.90
2023-03-26T14:33:27.309Z,8.90
2023-03-26T14:36:07.134Z,8.80
2023-03-26T14:38:53.211Z,8.80
2023-03-26T14:41:43.755Z,8.80
2023-03-26T14:44:48.177Z,8.80
2023-03-26T14:47:22.127Z,8.90
2023-03-26T14:50:04.575Z,8.90
2023-03-26T14:53:00.871Z,9.00
2023-03-26T14:56:08.424Z,9.00
2023-03-26T14:59:02.807Z,9.10
2023-03-26T15:01:47.374Z,9.00
2023-03-26T15:04:52.404Z,9.00
2023-03-26T15:07:54.310Z,9.00
2023-03-26T15:11:02.207Z,9.10
2023-03-26T15:14:00.503Z,9.10
2023-03-26T15:16:54.112Z,9.10
2023-03-26T15:19:40.939Z,9.20
2023-03-26T15:22:26.974Z,9.20
2023-03-26T15:24:57.208Z,9.20
2023-03-26T15:27:57.506Z,9.10
2023-03-26T15:30:34.049Z,9.00
2023-03-26T15:33:46.809Z,9.00
2023-03-26T15:36:30.354Z,9.00
2023-03-26T15:39:25.752Z,9.00
2023-03-26T15:42:11.795Z,9.00
2023-03-26T15:44:55.042Z,9.10
2023-03-26T15:47:37.327Z,9.30
2023-03-26T15:50:23.194Z,9.10
2023-03-26T15:52:59.062Z,9.10
2023-03-26T15:55:52.452Z,9.10
2023-03-26T15:58:26.500Z,9.00
2023-03-26T16:01:18.881Z,9.00
2023-03-26T16:03:48.142Z,9.00
2023-03-26T16:06:31.036Z,9.00
2023-03-26T16:09:12.694Z,9.00
2023-03-26T16:11:58.839Z,8.90
2023-03-26T16:14:36.053Z,8.80
2023-03-26T16:17:06.609Z,8.80
2023-03-26T16:20:32.592Z,8.80
2023-03-26T16:23:04.799Z,8.70
2023-03-26T16:25:35.424Z,8.70
2023-03-26T16:28:27.164Z,8.70
2023-03-26T16:31:37.196Z,8.60
2023-03-26T16:34:09.032Z,8.60
2023-03-26T16:36:44.696Z,8.60
2023-03-26T16:39:19.048Z,8.50
2023-03-26T16:41:47.226Z,8.50
2023-03-26T16:44:21.102Z,8.60
2023-03-26T16:47:04.255Z,8.70
2023-03-26T16:49:41.005Z,8.60
2023-03-26T16:52:20.686Z,8.60
2023-03-26T16:57:41.646Z,8.50
2023-03-26T17:00:30.674Z,8.40
2023-03-26T17:03:23.610Z,8.40
2023-03-26T17:05:54.091Z,8.40
2023-03-26T17:08:36.746Z,8.40
2023-03-26T17:11:18.145Z,8.60
2023-03-26T17:14:12.333Z,8.60
2023-03-26T17:16:49.713Z,8.70
2023-03-26T17:19:25.647Z,8.70
2023-03-26T17:22:05.888Z,8.60
2023-03-26T17:24:40.704Z,8.60
2023-03-26T17:27:47.094Z,8.70
2023-03-26T17:30:33.148Z,8.60
2023-03-26T17:33:06.171Z,8.60
2023-03-26T17:35:46.826Z,8.60
2023-03-26T17:38:17.481Z,8.60
2023-03-26T17:40:51.744Z,8.50
2023-03-26T17:43:37.897Z,8.40
2023-03-26T17:46:33.292Z,8.40
2023-03-26T17:49:11.541Z,8.40
2023-03-26T17:51:52.950Z,8.30
2023-03-26T17:54:24.348Z,8.40
2023-03-26T17:56:53.139Z,8.40
2023-03-26T17:59:24.144Z,8.40
2023-03-26T18:01:58.683Z,8.40
2023-03-26T18:04:48.324Z,8.50
2023-03-26T18:07:47.581Z,8.30
2023-03-26T18:10:33.118Z,8.30
2023-03-26T18:13:17.108Z,8.20
2023-03-26T18:15:50.259Z,8.20
2023-03-26T18:18:23.551Z,8.20
2023-03-26T18:20:52.332Z,8.10
2023-03-26T18:23:35.643Z,8.10
2023-03-26T18:26:50.897Z,8.00
2023-03-26T18:29:27.794Z,8.00
2023-03-26T18:32:02.634Z,7.90
2023-03-26T18:34:32.595Z,7.90
2023-03-26T18:37:20.190Z,7.90
2023-03-26T18:40:00.123Z,8.00
2023-03-26T18:42:30.460Z,7.90
2023-03-26T18:45:01.166Z,7.90
2023-03-26T18:47:31.697Z,7.90
2023-03-26T18:50:00.357Z,8.00
2023-03-26T18:52:29.910Z,8.00
2023-03-26T18:54:59.436Z,7.90
2023-03-26T18:57:28.993Z,7.90
2023-03-26T19:00:15.625Z,7.90
2023-03-26T19:02:43.922Z,7.90
2023-03-26T19:05:16.942Z,7.80
2023-03-26T19:07:46.480Z,7.80
2023-03-26T19:10:21.481Z,7.80
2023-03-26T19:12:57.395Z,7.80
2023-03-26T19:15:28.407Z,7.80
2023-03-26T19:18:14.013Z,7.80
2023-03-26T19:20:51.476Z,7.80
2023-03-26T19:23:21.734Z,7.70
2023-03-26T19:25:54.991Z,7.70
2023-03-26T19:28:25.790Z,7.80
2023-03-26T19:30:59.653Z,7.70
2023-03-26T19:33:35.041Z,7.70
2023-03-26T19:36:05.025Z,7.70
2023-03-26T19:38:44.405Z,7.60
2023-03-26T19:41:25.189Z,7.60
2023-03-26T19:43:55.950Z,7.60
2023-03-26T19:46:25.563Z,7.70
2023-03-26T19:48:55.019Z,7.70
2023-03-26T19:51:34.691Z,7.70
2023-03-26T19:54:11.896Z,7.60
2023-03-26T19:56:39.657Z,7.70
2023-03-26T19:59:07.753Z,7.60
2023-03-26T20:01:36.556Z,7.60
2023-03-26T20:04:07.900Z,7.60
2023-03-26T20:06:43.661Z,7.60
2023-03-26T20:09:13.030Z,7.60
2023-03-26T20:11:41.490Z,7.60
2023-03-26T20:14:16.072Z,7.60
2023-03-26T20:16:45.346Z,7.60
2023-03-26T20:19:14.557Z,7.50
2023-03-26T20:21:43.428Z,7.50
2023-03-26T20:24:16.367Z,7.50
2023-03-26T20:26:47.748Z,7.60
2023-03-26T20:29:15.898Z,7.50
2023-03-26T20:31:43.900Z,7.50
2023-03-26T20:34:20.685Z,7.50
2023-03-26T20:36:54.273Z,7.50
2023-03-26T20:39:23.639Z,7.40
2023-03-26T20:41:52.888Z,7.40
2023-03-26T20:44:22.022Z,7.40
2023-03-26T20:46:50.276Z,7.40
2023-03-26T20:49:18.387Z,7.40
2023-03-26T20:51:46.918Z,7.40
2023-03-26T20:54:25.781Z,7.40
2023-03-26T20:56:54.788Z,7.40
2023-03-26T20:59:27.789Z,7.30
2023-03-26T21:01:57.932Z,7.30
2023-03-26T21:04:26.369Z,7.30
2023-03-26T21:06:57.886Z,7.30
2023-03-26T21:09:34.124Z,7.20
2023-03-26T21:12:21.537Z,7.20
2023-03-26T21:14:49.341Z,7.20
2023-03-26T21:17:20.701Z,7.30
2023-03-26T21:19:49.225Z,7.30
2023-03-26T21:22:30.626Z,7.30
2023-03-26T21:25:10.484Z,7.30
2023-03-26T21:27:57.034Z,7.20
2023-03-26T21:30:25.835Z,7.20
2023-03-26T21:32:53.858Z,7.20
2023-03-26T21:35:21.808Z,7.10
2023-03-26T21:37:49.702Z,7.10
2023-03-26T21:40:18.945Z,7.10
2023-03-26T21:42:49.854Z,7.10
2023-03-26T21:45:19.894Z,7.10
2023-03-26T21:47:48.618Z,7.10
2023-03-26T21:50:20.478Z,7.10
2023-03-26T21:52:48.826Z,7.10
2023-03-26T21:55:21.121Z,7.20
2023-03-26T21:57:54.731Z,7.10
2023-03-26T22:00:33.567Z,7.10
2023-03-26T22:03:14.343Z,7.10
2023-03-26T22:06:13.638Z,7.00
2023-03-26T22:08:42.800Z,7.10
2023-03-26T22:11:12.370Z,7.00
2023-03-26T22:13:40.187Z,7.00
2023-03-26T22:16:09.463Z,7.10
2023-03-26T22:18:37.123Z,7.10
2023-03-26T22:21:05.993Z,7.00
2023-03-26T22:23:36.542Z,7.00
2023-03-26T22:26:05.280Z,7.00
2023-03-26T22:28:33.183Z,7.10
2023-03-26T22:31:07.447Z,7.00
2023-03-26T22:33:36.145Z,7.00
2023-03-26T22:36:03.948Z,7.00
2023-03-26T22:38:31.614Z,7.00
2023-03-26T22:40:59.205Z,7.00
2023-03-26T22:43:26.876Z,7.00
2023-03-26T22:45:55.018Z,7.00
2023-03-26T22:48:23.894Z,7.00
2023-03-26T22:50:59.279Z,6.90
2023-03-26T22:53:26.683Z,6.90
2023-03-26T22:55:54.231Z,6.90
2023-03-26T22:58:22.278Z,6.90
2023-03-26T23:00:52.169Z,7.00
2023-03-26T23:03:20.979Z,7.00
2023-03-26T23:06:06.976Z,7.00
2023-03-26T23:08:35.317Z,7.10
2023-03-26T23:11:08.376Z,7.20
2023-03-26T23:13:36.223Z,7.20
2023-03-26T23:16:04.641Z,7.10
2023-03-26T23:18:32.483Z,7.10
2023-03-26T23:21:00.377Z,7.10
2023-03-26T23:23:30.951Z,7.10
2023-03-26T23:26:01.279Z,7.10
2023-03-26T23:28:33.265Z,7.10
2023-03-26T23:31:02.929Z,7.00
2023-03-26T23:33:35.287Z,7.00
2023-03-26T23:36:08.838Z,6.90
2023-03-26T23:38:43.688Z,6.90
2023-03-26T23:41:15.142Z,6.90
2023-03-26T23:43:54.483Z,6.90
2023-03-26T23:46:24.896Z,6.90
2023-03-26T23:48:53.480Z,6.90
2023-03-26T23:51:22.415Z,6.90
2023-03-26T23:53:50.304Z,6.90
2023-03-26T23:56:17.961Z,6.80
2023-03-26T23:58:45.777Z,6.80
